sensor_id;sensor_type;location;lat;lon;timestamp;temperature;humidity
34877;DHT22;21086;44.780;17.194;2022-12-15T00:01:30;4.60;99.90
34877;DHT22;21086;44.780;17.194;2022-12-15T00:04:16;3.50;99.90
34877;DHT22;21086;44.780;17.194;2022-12-15T00:07:02;4.00;99.90
34877;DHT22;21086;44.780;17.194;2022-12-15T00:09:48;4.80;99.90
34877;DHT22;21086;44.780;17.194;2022-12-15T00:15:36;4.90;99.90
34877;DHT22;21086;44.780;17.194;2022-12-15T00:18:22;3.80;99.90
34877;DHT22;21086;44.780;17.194;2022-12-15T00:21:08;4.60;99.90
34877;DHT22;21086;44.780;17.194;2022-12-15T00:23:53;4.40;99.90
34877;DHT22;21086;44.780;17.194;2022-12-15T00:26:40;6.10;99.90
34877;DHT22;21086;44.780;17.194;2022-12-15T00:32:01;4.90;99.90
34877;DHT22;21086;44.780;17.194;2022-12-15T00:34:47;4.20;99.90
34877;DHT22;21086;44.780;17.194;2022-12-15T00:37:32;6.40;99.90
34877;DHT22;21086;44.780;17.194;2022-12-15T00:45:39;4.90;99.90
34877;DHT22;21086;44.780;17.194;2022-12-15T00:48:25;4.70;99.90
34877;DHT22;21086;44.780;17.194;2022-12-15T00:50:52;6.40;99.90
34877;DHT22;21086;44.780;17.194;2022-12-15T00:53:21;3.90;99.90
34877;DHT22;21086;44.780;17.194;2022-12-15T00:56:08;5.50;99.90
34877;DHT22;21086;44.780;17.194;2022-12-15T00:58:55;6.40;99.90
34877;DHT22;21086;44.780;17.194;2022-12-15T01:01:40;6.00;99.90
34877;DHT22;21086;44.780;17.194;2022-12-15T01:04:27;3.90;99.90
34877;DHT22;21086;44.780;17.194;2022-12-15T01:07:13;4.70;99.90
34877;DHT22;21086;44.780;17.194;2022-12-15T01:09:59;5.10;99.90
34877;DHT22;21086;44.780;17.194;2022-12-15T01:12:55;3.50;99.90
34877;DHT22;21086;44.780;17.194;2022-12-15T01:15:41;3.50;99.90
34877;DHT22;21086;44.780;17.194;2022-12-15T01:18:27;4.70;99.90
34877;DHT22;21086;44.780;17.194;2022-12-15T01:21:15;4.90;99.90
34877;DHT22;21086;44.780;17.194;2022-12-15T01:23:43;6.10;99.90
34877;DHT22;21086;44.780;17.194;2022-12-15T01:26:11;4.50;99.90
34877;DHT22;21086;44.780;17.194;2022-12-15T01:28:38;4.30;99.90
34877;DHT22;21086;44.780;17.194;2022-12-15T01:31:11;3.10;99.90
34877;DHT22;21086;44.780;17.194;2022-12-15T01:33:39;3.40;99.90
34877;DHT22;21086;44.780;17.194;2022-12-15T01:36:09;4.90;99.90
34877;DHT22;21086;44.780;17.194;2022-12-15T01:38:36;3.80;99.90
34877;DHT22;21086;44.780;17.194;2022-12-15T01:41:07;5.10;99.90
34877;DHT22;21086;44.780;17.194;2022-12-15T01:43:37;4.10;99.90
34877;DHT22;21086;44.780;17.194;2022-12-15T01:48:39;4.50;99.90
34877;DHT22;21086;44.780;17.194;2022-12-15T01:54:07;3.30;99.90
34877;DHT22;21086;44.780;17.194;2022-12-15T01:56:46;3.10;99.90
34877;DHT22;21086;44.780;17.194;2022-12-15T01:59:19;4.60;99.90
34877;DHT22;21086;44.780;17.194;2022-12-15T02:01:47;5.50;99.90
34877;DHT22;21086;44.780;17.194;2022-12-15T02:04:21;4.50;99.90
34877;DHT22;21086;44.780;17.194;2022-12-15T02:06:49;4.00;99.90
34877;DHT22;21086;44.780;17.194;2022-12-15T02:09:19;3.40;99.90
34877;DHT22;21086;44.780;17.194;2022-12-15T02:25:59;3.40;99.90
34877;DHT22;21086;44.780;17.194;2022-12-15T02:31:32;3.80;99.90
34877;DHT22;21086;44.780;17.194;2022-12-15T02:34:18;4.70;99.90
34877;DHT22;21086;44.780;17.194;2022-12-15T02:36:50;4.00;99.90
34877;DHT22;21086;44.780;17.194;2022-12-15T02:39:21;4.00;99.90
34877;DHT22;21086;44.780;17.194;2022-12-15T02:41:50;4.20;99.90
34877;DHT22;21086;44.780;17.194;2022-12-15T02:44:20;3.70;99.90
34877;DHT22;21086;44.780;17.194;2022-12-15T02:55:59;3.90;99.90
34877;DHT22;21086;44.780;17.194;2022-12-15T02:58:47;5.50;99.90
34877;DHT22;21086;44.780;17.194;2022-12-15T03:01:33;5.90;99.90
34877;DHT22;21086;44.780;17.194;2022-12-15T03:04:05;3.60;99.90
34877;DHT22;21086;44.780;17.194;2022-12-15T03:06:32;4.60;99.90
34877;DHT22;21086;44.780;17.194;2022-12-15T03:09:00;3.00;99.90
34877;DHT22;21086;44.780;17.194;2022-12-15T03:11:27;4.50;99.90
34877;DHT22;21086;44.780;17.194;2022-12-15T03:13:54;4.10;99.90
34877;DHT22;21086;44.780;17.194;2022-12-15T03:16:22;2.60;99.90
34877;DHT22;21086;44.780;17.194;2022-12-15T03:18:50;4.10;99.90
34877;DHT22;21086;44.780;17.194;2022-12-15T03:21:18;5.50;99.90
34877;DHT22;21086;44.780;17.194;2022-12-15T03:23:45;3.10;99.90
34877;DHT22;21086;44.780;17.194;2022-12-15T03:26:12;5.70;99.90
34877;DHT22;21086;44.780;17.194;2022-12-15T03:28:40;3.00;99.90
34877;DHT22;21086;44.780;17.194;2022-12-15T03:31:10;3.60;99.90
34877;DHT22;21086;44.780;17.194;2022-12-15T03:33:41;4.50;99.90
34877;DHT22;21086;44.780;17.194;2022-12-15T03:36:08;4.50;99.90
34877;DHT22;21086;44.780;17.194;2022-12-15T03:38:35;4.10;99.90
34877;DHT22;21086;44.780;17.194;2022-12-15T03:41:03;4.70;99.90
34877;DHT22;21086;44.780;17.194;2022-12-15T03:43:33;4.80;99.90
34877;DHT22;21086;44.780;17.194;2022-12-15T03:46:01;4.70;99.90
34877;DHT22;21086;44.780;17.194;2022-12-15T03:48:29;4.70;99.90
34877;DHT22;21086;44.780;17.194;2022-12-15T03:50:56;4.50;99.90
34877;DHT22;21086;44.780;17.194;2022-12-15T03:53:24;4.50;99.90
34877;DHT22;21086;44.780;17.194;2022-12-15T03:55:52;5.80;99.90
34877;DHT22;21086;44.780;17.194;2022-12-15T03:58:19;2.70;99.90
34877;DHT22;21086;44.780;17.194;2022-12-15T04:00:47;3.40;99.90
34877;DHT22;21086;44.780;17.194;2022-12-15T04:03:14;3.80;99.90
34877;DHT22;21086;44.780;17.194;2022-12-15T04:18:08;4.40;99.90
34877;DHT22;21086;44.780;17.194;2022-12-15T04:20:37;4.30;99.90
34877;DHT22;21086;44.780;17.194;2022-12-15T04:23:05;4.50;99.90
34877;DHT22;21086;44.780;17.194;2022-12-15T04:25:35;5.40;99.90
34877;DHT22;21086;44.780;17.194;2022-12-15T04:28:21;6.50;99.90
34877;DHT22;21086;44.780;17.194;2022-12-15T04:31:22;3.60;99.90
34877;DHT22;21086;44.780;17.194;2022-12-15T04:34:12;3.20;99.90
34877;DHT22;21086;44.780;17.194;2022-12-15T04:36:59;4.10;99.90
34877;DHT22;21086;44.780;17.194;2022-12-15T04:39:48;3.90;99.90
34877;DHT22;21086;44.780;17.194;2022-12-15T04:42:36;2.90;99.90
34877;DHT22;21086;44.780;17.194;2022-12-15T04:45:42;3.90;99.90
34877;DHT22;21086;44.780;17.194;2022-12-15T04:48:28;6.10;99.90
34877;DHT22;21086;44.780;17.194;2022-12-15T04:51:15;3.40;99.90
34877;DHT22;21086;44.780;17.194;2022-12-15T04:54:01;3.30;99.90
34877;DHT22;21086;44.780;17.194;2022-12-15T04:56:46;3.90;99.90
34877;DHT22;21086;44.780;17.194;2022-12-15T04:59:32;3.40;99.90
34877;DHT22;21086;44.780;17.194;2022-12-15T05:02:18;3.90;99.90
34877;DHT22;21086;44.780;17.194;2022-12-15T05:40:50;4.70;99.90
34877;DHT22;21086;44.780;17.194;2022-12-15T05:43:17;4.80;99.90
34877;DHT22;21086;44.780;17.194;2022-12-15T05:45:52;4.30;99.90
34877;DHT22;21086;44.780;17.194;2022-12-15T05:48:20;3.70;99.90
34877;DHT22;21086;44.780;17.194;2022-12-15T05:50:47;5.30;99.90
34877;DHT22;21086;44.780;17.194;2022-12-15T05:53:15;4.60;99.90
34877;DHT22;21086;44.780;17.194;2022-12-15T05:55:42;5.40;99.90
34877;DHT22;21086;44.780;17.194;2022-12-15T05:58:09;4.80;99.90
34877;DHT22;21086;44.780;17.194;2022-12-15T06:00:35;4.80;99.90
34877;DHT22;21086;44.780;17.194;2022-12-15T06:03:02;5.70;99.90
34877;DHT22;21086;44.780;17.194;2022-12-15T06:05:29;5.20;99.90
34877;DHT22;21086;44.780;17.194;2022-12-15T06:07:56;5.20;99.90
34877;DHT22;21086;44.780;17.194;2022-12-15T06:10:25;5.30;99.90
34877;DHT22;21086;44.780;17.194;2022-12-15T06:12:51;5.60;99.90
34877;DHT22;21086;44.780;17.194;2022-12-15T06:15:19;4.70;99.90
34877;DHT22;21086;44.780;17.194;2022-12-15T06:17:46;4.90;99.90
34877;DHT22;21086;44.780;17.194;2022-12-15T06:20:15;5.20;99.90
34877;DHT22;21086;44.780;17.194;2022-12-15T06:22:43;5.20;99.90
34877;DHT22;21086;44.780;17.194;2022-12-15T06:25:16;5.00;99.90
34877;DHT22;21086;44.780;17.194;2022-12-15T06:27:43;5.60;99.90
34877;DHT22;21086;44.780;17.194;2022-12-15T06:30:10;4.70;99.90
34877;DHT22;21086;44.780;17.194;2022-12-15T06:32:37;4.70;99.90
34877;DHT22;21086;44.780;17.194;2022-12-15T06:35:04;5.80;99.90
34877;DHT22;21086;44.780;17.194;2022-12-15T06:37:31;4.80;99.90
34877;DHT22;21086;44.780;17.194;2022-12-15T06:39:58;5.50;99.90
34877;DHT22;21086;44.780;17.194;2022-12-15T06:42:26;4.90;99.90
34877;DHT22;21086;44.780;17.194;2022-12-15T06:44:53;4.90;99.90
34877;DHT22;21086;44.780;17.194;2022-12-15T06:47:19;5.00;99.90
34877;DHT22;21086;44.780;17.194;2022-12-15T06:49:46;5.10;99.90
34877;DHT22;21086;44.780;17.194;2022-12-15T06:52:13;5.20;99.90
34877;DHT22;21086;44.780;17.194;2022-12-15T06:54:40;5.10;99.90
34877;DHT22;21086;44.780;17.194;2022-12-15T06:57:07;5.20;99.90
34877;DHT22;21086;44.780;17.194;2022-12-15T06:59:35;5.50;99.90
34877;DHT22;21086;44.780;17.194;2022-12-15T07:02:02;5.30;99.90
34877;DHT22;21086;44.780;17.194;2022-12-15T07:04:31;5.20;99.90
34877;DHT22;21086;44.780;17.194;2022-12-15T07:06:58;5.20;99.90
34877;DHT22;21086;44.780;17.194;2022-12-15T07:09:25;5.10;99.90
34877;DHT22;21086;44.780;17.194;2022-12-15T07:11:53;5.10;99.90
34877;DHT22;21086;44.780;17.194;2022-12-15T07:14:20;5.10;99.90
34877;DHT22;21086;44.780;17.194;2022-12-15T07:16:48;5.00;99.90
34877;DHT22;21086;44.780;17.194;2022-12-15T07:19:15;4.80;99.90
34877;DHT22;21086;44.780;17.194;2022-12-15T07:21:42;4.80;99.90
34877;DHT22;21086;44.780;17.194;2022-12-15T07:24:12;4.70;99.90
34877;DHT22;21086;44.780;17.194;2022-12-15T07:26:40;4.70;99.90
34877;DHT22;21086;44.780;17.194;2022-12-15T07:29:08;4.80;99.90
34877;DHT22;21086;44.780;17.194;2022-12-15T07:31:35;4.80;99.90
34877;DHT22;21086;44.780;17.194;2022-12-15T07:34:02;5.80;99.90
34877;DHT22;21086;44.780;17.194;2022-12-15T07:36:28;4.80;99.90
34877;DHT22;21086;44.780;17.194;2022-12-15T07:38:57;5.50;99.90
34877;DHT22;21086;44.780;17.194;2022-12-15T07:41:27;5.10;99.90
34877;DHT22;21086;44.780;17.194;2022-12-15T07:43:54;5.50;99.90
34877;DHT22;21086;44.780;17.194;2022-12-15T07:46:21;5.20;99.90
34877;DHT22;21086;44.780;17.194;2022-12-15T07:48:50;5.30;99.90
34877;DHT22;21086;44.780;17.194;2022-12-15T07:51:18;5.40;99.90
34877;DHT22;21086;44.780;17.194;2022-12-15T07:53:47;5.50;99.90
34877;DHT22;21086;44.780;17.194;2022-12-15T07:56:15;5.40;99.90
34877;DHT22;21086;44.780;17.194;2022-12-15T07:58:42;5.50;99.90
34877;DHT22;21086;44.780;17.194;2022-12-15T08:01:11;5.50;99.90
34877;DHT22;21086;44.780;17.194;2022-12-15T08:03:39;5.50;99.90
34877;DHT22;21086;44.780;17.194;2022-12-15T08:06:09;5.60;99.90
34877;DHT22;21086;44.780;17.194;2022-12-15T08:08:36;5.60;99.90
34877;DHT22;21086;44.780;17.194;2022-12-15T08:11:08;5.70;99.90
34877;DHT22;21086;44.780;17.194;2022-12-15T08:13:37;5.80;99.90
34877;DHT22;21086;44.780;17.194;2022-12-15T08:16:24;5.70;99.90
34877;DHT22;21086;44.780;17.194;2022-12-15T08:18:51;5.70;99.90
34877;DHT22;21086;44.780;17.194;2022-12-15T08:21:18;5.70;99.90
34877;DHT22;21086;44.780;17.194;2022-12-15T08:23:45;5.70;99.90
34877;DHT22;21086;44.780;17.194;2022-12-15T08:26:14;5.60;99.90
34877;DHT22;21086;44.780;17.194;2022-12-15T08:28:42;5.90;99.90
34877;DHT22;21086;44.780;17.194;2022-12-15T08:31:12;5.60;99.90
34877;DHT22;21086;44.780;17.194;2022-12-15T08:33:39;5.70;99.90
34877;DHT22;21086;44.780;17.194;2022-12-15T08:36:08;5.90;99.90
34877;DHT22;21086;44.780;17.194;2022-12-15T08:38:37;5.90;99.90
34877;DHT22;21086;44.780;17.194;2022-12-15T08:41:12;6.10;99.90
34877;DHT22;21086;44.780;17.194;2022-12-15T08:43:40;6.00;99.90
34877;DHT22;21086;44.780;17.194;2022-12-15T08:46:15;6.20;99.90
34877;DHT22;21086;44.780;17.194;2022-12-15T08:48:43;6.30;99.90
34877;DHT22;21086;44.780;17.194;2022-12-15T08:51:10;6.20;99.90
34877;DHT22;21086;44.780;17.194;2022-12-15T08:53:37;6.20;99.90
34877;DHT22;21086;44.780;17.194;2022-12-15T08:56:13;6.10;99.90
34877;DHT22;21086;44.780;17.194;2022-12-15T08:58:44;6.00;99.90
34877;DHT22;21086;44.780;17.194;2022-12-15T09:01:18;6.50;99.90
34877;DHT22;21086;44.780;17.194;2022-12-15T09:03:50;7.10;99.90
34877;DHT22;21086;44.780;17.194;2022-12-15T09:06:21;6.40;99.90
34877;DHT22;21086;44.780;17.194;2022-12-15T09:08:48;6.40;99.90
34877;DHT22;21086;44.780;17.194;2022-12-15T09:11:16;6.40;99.90
34877;DHT22;21086;44.780;17.194;2022-12-15T09:13:43;6.60;99.90
34877;DHT22;21086;44.780;17.194;2022-12-15T09:16:12;6.80;99.90
34877;DHT22;21086;44.780;17.194;2022-12-15T09:18:41;6.90;99.90
34877;DHT22;21086;44.780;17.194;2022-12-15T09:21:09;6.80;99.90
34877;DHT22;21086;44.780;17.194;2022-12-15T09:23:37;6.90;99.90
34877;DHT22;21086;44.780;17.194;2022-12-15T09:26:05;6.80;99.90
34877;DHT22;21086;44.780;17.194;2022-12-15T09:28:33;6.90;99.90
34877;DHT22;21086;44.780;17.194;2022-12-15T09:31:02;6.80;99.90
34877;DHT22;21086;44.780;17.194;2022-12-15T09:33:30;6.80;99.90
34877;DHT22;21086;44.780;17.194;2022-12-15T09:35:58;7.00;99.90
34877;DHT22;21086;44.780;17.194;2022-12-15T09:38:25;7.10;99.90
34877;DHT22;21086;44.780;17.194;2022-12-15T09:40:52;7.20;99.90
34877;DHT22;21086;44.780;17.194;2022-12-15T09:43:22;7.30;99.90
34877;DHT22;21086;44.780;17.194;2022-12-15T09:46:26;7.30;99.90
34877;DHT22;21086;44.780;17.194;2022-12-15T09:48:57;7.30;99.90
34877;DHT22;21086;44.780;17.194;2022-12-15T09:51:32;7.30;99.90
34877;DHT22;21086;44.780;17.194;2022-12-15T09:54:00;7.30;99.90
34877;DHT22;21086;44.780;17.194;2022-12-15T09:56:46;7.30;99.90
34877;DHT22;21086;44.780;17.194;2022-12-15T09:59:22;7.20;99.90
34877;DHT22;21086;44.780;17.194;2022-12-15T10:05:13;7.60;99.90
34877;DHT22;21086;44.780;17.194;2022-12-15T10:07:43;7.70;99.90
34877;DHT22;21086;44.780;17.194;2022-12-15T10:10:40;7.90;99.90
34877;DHT22;21086;44.780;17.194;2022-12-15T10:13:37;8.20;99.90
34877;DHT22;21086;44.780;17.194;2022-12-15T10:16:25;8.40;99.90
34877;DHT22;21086;44.780;17.194;2022-12-15T10:21:54;8.70;99.90
34877;DHT22;21086;44.780;17.194;2022-12-15T10:24:22;8.70;99.90
34877;DHT22;21086;44.780;17.194;2022-12-15T10:30:18;9.10;99.90
34877;DHT22;21086;44.780;17.194;2022-12-15T10:32:55;9.40;99.90
34877;DHT22;21086;44.780;17.194;2022-12-15T10:35:28;9.80;99.90
34877;DHT22;21086;44.780;17.194;2022-12-15T10:38:05;10.20;99.90
34877;DHT22;21086;44.780;17.194;2022-12-15T10:40:50;10.70;99.90
34877;DHT22;21086;44.780;17.194;2022-12-15T10:46:17;11.00;99.90
34877;DHT22;21086;44.780;17.194;2022-12-15T10:48:49;11.40;99.90
34877;DHT22;21086;44.780;17.194;2022-12-15T10:51:30;11.80;99.90
34877;DHT22;21086;44.780;17.194;2022-12-15T10:57:29;12.40;99.90
34877;DHT22;21086;44.780;17.194;2022-12-15T10:59:37;12.90;99.90
34877;DHT22;21086;44.780;17.194;2022-12-15T11:07:43;13.80;99.90
34877;DHT22;21086;44.780;17.194;2022-12-15T11:10:20;14.20;99.90
34877;DHT22;21086;44.780;17.194;2022-12-15T11:13:12;14.60;99.90
34877;DHT22;21086;44.780;17.194;2022-12-15T11:15:45;14.60;99.90
34877;DHT22;21086;44.780;17.194;2022-12-15T11:21:18;15.10;99.90
34877;DHT22;21086;44.780;17.194;2022-12-15T11:26:33;16.40;99.90
34877;DHT22;21086;44.780;17.194;2022-12-15T11:31:39;17.40;99.90
34877;DHT22;21086;44.780;17.194;2022-12-15T11:34:23;18.00;99.90
34877;DHT22;21086;44.780;17.194;2022-12-15T11:37:01;18.50;99.90
34877;DHT22;21086;44.780;17.194;2022-12-15T11:48:16;18.10;99.90
34877;DHT22;21086;44.780;17.194;2022-12-15T11:53:55;19.00;99.90
34877;DHT22;21086;44.780;17.194;2022-12-15T12:04:54;19.60;99.90
34877;DHT22;21086;44.780;17.194;2022-12-15T12:10:47;19.80;99.90
34877;DHT22;21086;44.780;17.194;2022-12-15T12:13:26;20.10;99.90
34877;DHT22;21086;44.780;17.194;2022-12-15T12:18:47;21.20;99.90
34877;DHT22;21086;44.780;17.194;2022-12-15T12:21:26;21.60;99.90
34877;DHT22;21086;44.780;17.194;2022-12-15T12:24:04;21.30;99.90
34877;DHT22;21086;44.780;17.194;2022-12-15T12:26:41;21.10;99.90
34877;DHT22;21086;44.780;17.194;2022-12-15T12:32:29;19.90;99.90
34877;DHT22;21086;44.780;17.194;2022-12-15T12:35:28;20.00;99.90
34877;DHT22;21086;44.780;17.194;2022-12-15T12:38:01;20.10;99.90
34877;DHT22;21086;44.780;17.194;2022-12-15T12:42:58;19.70;99.90
34877;DHT22;21086;44.780;17.194;2022-12-15T12:48:24;19.40;99.90
34877;DHT22;21086;44.780;17.194;2022-12-15T12:53:37;18.70;99.90
34877;DHT22;21086;44.780;17.194;2022-12-15T12:56:04;18.30;99.90
34877;DHT22;21086;44.780;17.194;2022-12-15T12:58:36;17.80;99.90
34877;DHT22;21086;44.780;17.194;2022-12-15T13:01:19;17.40;99.90
34877;DHT22;21086;44.780;17.194;2022-12-15T13:09:42;15.80;99.90
34877;DHT22;21086;44.780;17.194;2022-12-15T13:12:44;15.50;99.90
34877;DHT22;21086;44.780;17.194;2022-12-15T13:18:16;15.30;99.90
34877;DHT22;21086;44.780;17.194;2022-12-15T13:20:45;15.30;99.90
34877;DHT22;21086;44.780;17.194;2022-12-15T13:31:32;14.80;99.90
34877;DHT22;21086;44.780;17.194;2022-12-15T13:34:11;15.00;99.90
34877;DHT22;21086;44.780;17.194;2022-12-15T13:44:43;14.20;99.90
34877;DHT22;21086;44.780;17.194;2022-12-15T13:47:19;13.80;99.90
34877;DHT22;21086;44.780;17.194;2022-12-15T13:52:36;13.10;99.90
34877;DHT22;21086;44.780;17.194;2022-12-15T13:55:28;12.90;99.90
34877;DHT22;21086;44.780;17.194;2022-12-15T13:58:06;12.60;99.90
34877;DHT22;21086;44.780;17.194;2022-12-15T14:00:38;12.30;99.90
34877;DHT22;21086;44.780;17.194;2022-12-15T14:03:14;12.00;99.90
34877;DHT22;21086;44.780;17.194;2022-12-15T14:05:54;11.70;99.90
34877;DHT22;21086;44.780;17.194;2022-12-15T14:08:23;11.50;99.90
34877;DHT22;21086;44.780;17.194;2022-12-15T14:10:58;11.50;99.90
34877;DHT22;21086;44.780;17.194;2022-12-15T14:13:42;11.40;99.90
34877;DHT22;21086;44.780;17.194;2022-12-15T14:16:19;11.20;99.90
34877;DHT22;21086;44.780;17.194;2022-12-15T14:19:12;11.20;99.90
34877;DHT22;21086;44.780;17.194;2022-12-15T14:21:48;11.10;99.90
34877;DHT22;21086;44.780;17.194;2022-12-15T14:24:29;11.10;99.90
34877;DHT22;21086;44.780;17.194;2022-12-15T14:27:05;11.00;99.90
34877;DHT22;21086;44.780;17.194;2022-12-15T14:29:32;10.90;99.90
34877;DHT22;21086;44.780;17.194;2022-12-15T14:31:59;10.80;99.90
34877;DHT22;21086;44.780;17.194;2022-12-15T14:34:35;10.70;99.90
34877;DHT22;21086;44.780;17.194;2022-12-15T14:37:09;10.50;99.90
34877;DHT22;21086;44.780;17.194;2022-12-15T14:39:46;10.30;99.90
34877;DHT22;21086;44.780;17.194;2022-12-15T14:42:37;10.30;99.90
34877;DHT22;21086;44.780;17.194;2022-12-15T14:45:04;10.20;99.90
34877;DHT22;21086;44.780;17.194;2022-12-15T14:47:34;10.20;99.90
34877;DHT22;21086;44.780;17.194;2022-12-15T14:50:08;10.10;99.90
34877;DHT22;21086;44.780;17.194;2022-12-15T14:52:39;10.00;99.90
34877;DHT22;21086;44.780;17.194;2022-12-15T14:55:28;10.00;99.90
34877;DHT22;21086;44.780;17.194;2022-12-15T14:57:56;9.90;99.90
34877;DHT22;21086;44.780;17.194;2022-12-15T15:00:35;9.70;99.90
34877;DHT22;21086;44.780;17.194;2022-12-15T15:05:52;9.60;99.90
34877;DHT22;21086;44.780;17.194;2022-12-15T15:08:25;9.50;99.90
34877;DHT22;21086;44.780;17.194;2022-12-15T15:10:55;9.40;99.90
34877;DHT22;21086;44.780;17.194;2022-12-15T15:13:25;9.20;99.90
34877;DHT22;21086;44.780;17.194;2022-12-15T15:15:56;9.20;99.90
34877;DHT22;21086;44.780;17.194;2022-12-15T15:18:27;9.20;99.90
34877;DHT22;21086;44.780;17.194;2022-12-15T15:21:04;9.10;99.90
34877;DHT22;21086;44.780;17.194;2022-12-15T15:23:32;9.00;99.90
34877;DHT22;21086;44.780;17.194;2022-12-15T15:26:08;8.80;99.90
34877;DHT22;21086;44.780;17.194;2022-12-15T15:28:40;8.80;99.90
34877;DHT22;21086;44.780;17.194;2022-12-15T15:31:28;8.70;99.90
34877;DHT22;21086;44.780;17.194;2022-12-15T15:34:06;8.70;99.90
34877;DHT22;21086;44.780;17.194;2022-12-15T15:36:36;8.70;99.90
34877;DHT22;21086;44.780;17.194;2022-12-15T15:39:13;8.60;99.90
34877;DHT22;21086;44.780;17.194;2022-12-15T15:41:41;8.60;99.90
34877;DHT22;21086;44.780;17.194;2022-12-15T15:44:13;8.50;99.90
34877;DHT22;21086;44.780;17.194;2022-12-15T15:46:45;8.40;99.90
34877;DHT22;21086;44.780;17.194;2022-12-15T15:49:17;8.40;99.90
34877;DHT22;21086;44.780;17.194;2022-12-15T15:51:44;8.50;99.90
34877;DHT22;21086;44.780;17.194;2022-12-15T15:54:22;8.30;99.90
34877;DHT22;21086;44.780;17.194;2022-12-15T15:56:50;8.30;99.90
34877;DHT22;21086;44.780;17.194;2022-12-15T15:59:19;8.30;99.90
34877;DHT22;21086;44.780;17.194;2022-12-15T16:01:51;8.30;99.90
34877;DHT22;21086;44.780;17.194;2022-12-15T16:04:23;8.20;99.90
34877;DHT22;21086;44.780;17.194;2022-12-15T16:06:51;8.20;99.90
34877;DHT22;21086;44.780;17.194;2022-12-15T16:09:18;8.20;99.90
34877;DHT22;21086;44.780;17.194;2022-12-15T16:11:46;8.20;99.90
34877;DHT22;21086;44.780;17.194;2022-12-15T16:14:15;8.20;99.90
34877;DHT22;21086;44.780;17.194;2022-12-15T16:16:43;8.20;99.90
34877;DHT22;21086;44.780;17.194;2022-12-15T16:19:10;8.20;99.90
34877;DHT22;21086;44.780;17.194;2022-12-15T16:21:40;8.20;99.90
34877;DHT22;21086;44.780;17.194;2022-12-15T16:24:12;8.30;99.90
34877;DHT22;21086;44.780;17.194;2022-12-15T16:26:46;8.30;99.90
34877;DHT22;21086;44.780;17.194;2022-12-15T16:29:16;8.20;99.90
34877;DHT22;21086;44.780;17.194;2022-12-15T16:31:43;8.30;99.90
34877;DHT22;21086;44.780;17.194;2022-12-15T16:34:13;8.20;99.90
34877;DHT22;21086;44.780;17.194;2022-12-15T16:36:42;8.10;99.90
34877;DHT22;21086;44.780;17.194;2022-12-15T16:39:25;8.00;99.90
34877;DHT22;21086;44.780;17.194;2022-12-15T16:41:54;8.10;99.90
34877;DHT22;21086;44.780;17.194;2022-12-15T16:44:23;8.20;99.90
34877;DHT22;21086;44.780;17.194;2022-12-15T16:46:50;8.00;99.90
34877;DHT22;21086;44.780;17.194;2022-12-15T16:49:17;8.00;99.90
34877;DHT22;21086;44.780;17.194;2022-12-15T16:51:46;8.00;99.90
34877;DHT22;21086;44.780;17.194;2022-12-15T16:54:18;8.00;99.90
34877;DHT22;21086;44.780;17.194;2022-12-15T16:56:46;8.00;99.90
34877;DHT22;21086;44.780;17.194;2022-12-15T16:59:18;8.00;99.90
34877;DHT22;21086;44.780;17.194;2022-12-15T17:02:26;8.00;99.90
34877;DHT22;21086;44.780;17.194;2022-12-15T17:04:53;8.10;99.90
34877;DHT22;21086;44.780;17.194;2022-12-15T17:07:21;8.10;99.90
34877;DHT22;21086;44.780;17.194;2022-12-15T17:09:49;8.20;99.90
34877;DHT22;21086;44.780;17.194;2022-12-15T17:12:17;8.20;99.90
34877;DHT22;21086;44.780;17.194;2022-12-15T17:14:44;8.20;99.90
34877;DHT22;21086;44.780;17.194;2022-12-15T17:17:13;8.20;99.90
34877;DHT22;21086;44.780;17.194;2022-12-15T17:19:40;8.20;99.90
34877;DHT22;21086;44.780;17.194;2022-12-15T17:22:28;8.20;99.90
34877;DHT22;21086;44.780;17.194;2022-12-15T17:24:54;8.40;99.90
34877;DHT22;21086;44.780;17.194;2022-12-15T17:27:26;8.20;99.90
34877;DHT22;21086;44.780;17.194;2022-12-15T17:29:55;8.00;99.90
34877;DHT22;21086;44.780;17.194;2022-12-15T17:32:23;8.00;99.90
34877;DHT22;21086;44.780;17.194;2022-12-15T17:34:50;7.80;99.90
34877;DHT22;21086;44.780;17.194;2022-12-15T17:37:17;7.80;99.90
34877;DHT22;21086;44.780;17.194;2022-12-15T17:39:44;7.70;99.90
34877;DHT22;21086;44.780;17.194;2022-12-15T17:42:18;7.80;99.90
34877;DHT22;21086;44.780;17.194;2022-12-15T17:44:46;7.80;99.90
34877;DHT22;21086;44.780;17.194;2022-12-15T17:47:15;7.80;99.90
34877;DHT22;21086;44.780;17.194;2022-12-15T17:49:42;8.00;99.90
34877;DHT22;21086;44.780;17.194;2022-12-15T17:52:19;7.90;99.90
34877;DHT22;21086;44.780;17.194;2022-12-15T17:54:48;7.70;99.90
34877;DHT22;21086;44.780;17.194;2022-12-15T17:57:15;7.60;99.90
34877;DHT22;21086;44.780;17.194;2022-12-15T17:59:42;7.60;99.90
34877;DHT22;21086;44.780;17.194;2022-12-15T18:02:11;7.80;99.90
34877;DHT22;21086;44.780;17.194;2022-12-15T18:04:40;7.70;99.90
34877;DHT22;21086;44.780;17.194;2022-12-15T18:07:19;7.60;99.90
34877;DHT22;21086;44.780;17.194;2022-12-15T18:09:48;7.60;99.90
34877;DHT22;21086;44.780;17.194;2022-12-15T18:12:22;7.70;99.90
34877;DHT22;21086;44.780;17.194;2022-12-15T18:14:51;7.70;99.90
34877;DHT22;21086;44.780;17.194;2022-12-15T18:17:18;7.70;99.90
34877;DHT22;21086;44.780;17.194;2022-12-15T18:19:45;7.90;99.90
34877;DHT22;21086;44.780;17.194;2022-12-15T18:22:17;7.80;99.90
34877;DHT22;21086;44.780;17.194;2022-12-15T18:24:47;7.90;99.90
34877;DHT22;21086;44.780;17.194;2022-12-15T18:27:26;7.80;99.90
34877;DHT22;21086;44.780;17.194;2022-12-15T18:29:53;7.90;99.90
34877;DHT22;21086;44.780;17.194;2022-12-15T18:32:22;8.00;99.90
34877;DHT22;21086;44.780;17.194;2022-12-15T18:34:51;7.90;99.90
34877;DHT22;21086;44.780;17.194;2022-12-15T18:37:20;7.90;99.90
34877;DHT22;21086;44.780;17.194;2022-12-15T18:39:48;7.70;99.90
34877;DHT22;21086;44.780;17.194;2022-12-15T18:42:19;7.90;99.90
34877;DHT22;21086;44.780;17.194;2022-12-15T18:44:51;7.80;99.90
34877;DHT22;21086;44.780;17.194;2022-12-15T18:47:21;7.90;99.90
34877;DHT22;21086;44.780;17.194;2022-12-15T18:49:49;8.00;99.90
34877;DHT22;21086;44.780;17.194;2022-12-15T18:52:18;7.90;99.90
34877;DHT22;21086;44.780;17.194;2022-12-15T18:54:50;7.90;99.90
34877;DHT22;21086;44.780;17.194;2022-12-15T18:57:31;7.90;99.90
34877;DHT22;21086;44.780;17.194;2022-12-15T19:02:40;7.70;99.90
34877;DHT22;21086;44.780;17.194;2022-12-15T19:05:07;7.80;99.90
34877;DHT22;21086;44.780;17.194;2022-12-15T19:08:11;7.70;99.90
34877;DHT22;21086;44.780;17.194;2022-12-15T19:10:50;7.60;99.90
34877;DHT22;21086;44.780;17.194;2022-12-15T19:13:20;7.60;99.90
34877;DHT22;21086;44.780;17.194;2022-12-15T19:15:48;7.60;99.90